今年買いそびれたガジェットは!?【GearBest・クーポン速報】

良いお年をヾ(*´ω`*)ノ

GEAR BEST

中華タブレットを買うならまずはこのサイトから!

あまりにも安すぎて、見ているだけで面白いです。

海外通販サイトの中でも日本顧客を意識してくれています。

【GearBest】トップページ

 

クーポン

商品名 クーポンコード クーポン価格 限定回数 開始時間
Smart Bluetooth 4.0 Tracer GPS Locator Xmas500 $0.99 500 2017/12/29 21:00

▲GPS内蔵のトラッカー。
玄人向けのがじぇっとかな?

Amazonだと1800円で販売されていました(汗)

Smart Bluetooth 4.0 Tracer GPS Locator – Gearbest.com
DOCTOR·B Deep Cleaning Toothbrush – 4PCS Xmas501 $6.99 200 2017/12/29 21:00
Ulefone Armor 2 4G Smartphone Xmas502 $219.99 50 2017/12/29 22:00

▲超頑丈なBand19対応防水防塵スマホくんです。

Ulefone Armor 2 Full Review – Tough as nails
MX10 TV Box Xmas503 $46.99 50 2017/12/29 22:00
KingWear KW88 3G Smartwatch Phone Xmas504 $76.99 100 2017/12/29 23:00
MECOOL M8S Pro+ TV Box Xmas505 $32.99 100 2017/12/29 23:00
Powered Liquid Plastic Welding Compound with UV Light Xmas506 $1.99 200 2017/12/30 00:00
Yeelight YLTD02YL LED Table Light Xmas507 $22.99 100 2017/12/30 00:00
Star Sky Print Focus Toy Stress Relief Fidget Spinner Xmas508 $0.69 200 2017/12/30 01:00
ZTE Axon 7 Mini 4G Smartphone Xmas509 $119.99 100 2017/12/30 01:00

▲お手頃価格のスマホを探しているなら、こいつで決まり!

【SIMフリー】ZTE AXON MINI 5.2インチ軽快なカメラ安定スペック【スマホ】
ORICO 2139U3 2.5 inch USB 3.0 Micro B Hard Drive Enclosure Xmas510 $3.99 300 2017/12/30 02:00
KZ ZS5 Detachable HiFi Earphones Xmas511 $16.99 100 2017/12/30 02:00

▲Amazonで買うより半額以上!

🔴人気のKZイヤホン3つを徹底比較!【開封レビュー】
DJI Spark Mini RC Selfie Drone Xmas512 $639.99 50 2017/12/30 03:00
HakkaDeal Lock Pick Practice Set with Transparent Padlock Xmas513 $5.99 60 2017/12/30 03:00
Lenovo HW01 Smart Wristband Xmas514 $15.99 200 2017/12/30 04:00
T10 Bluetooth Car MP3 FM Transmitter – BLACK Xmas515 $9.99 100 2017/12/30 04:00
Zeblaze THOR 3G Smartwatch Phone – BLACK Xmas516 $89.99 100 2017/12/30 11:00
BZ02 Multifunctional Folding Pliers / Nails Tool – SILVER Xmas517 $0.99 200 2017/12/30 11:00
S10 WiFi FPV 2.4GHz 4-channel RC Drone – RTF – BLACK Xmas518 $35.99 50 2017/12/30 17:00
Original Xiaomi Piston In Ear Earphones Fresh Version – BLACK Xmas519 $3.99 200 2017/12/30 17:00

▲激安です。

🔴全世界を脅かしている、衝撃的な中国のイヤホン
SMZ658 HiFi Earphones Xmas520 $0.69 500 2017/12/30 21:00
Lenovo HW01 Smart Wristband Xmas521 $15.99 200 2017/12/30 21:00
HOMTOM ZOJI Z8 4G Smartphone Xmas522 $146.99 50 2017/12/30 22:00
FY FEIYUTECH SPG C 3-axis Stabilized Handheld Gimbal Xmas523 $109.99 50 2017/12/30 22:00
Elephone EleCam Explorer Elite 4K Action Camera Xmas524 $55.99 100 2017/12/30 23:00
Original DJI GL100A Transmitter Xmas525 $99.99 20 2017/12/30 23:00
M.Sparkling 3D Creative Colorful USB Powered Night Lamp Xmas526 $5.99 100 2017/12/31 00:00
Original Xiaomi Huami AMAZFIT Sports Bluetooth Smart Watch Xmas527 $99.99 100 2017/12/31 00:00
ANDE 3.5mm Jack In-ear Earphones Xmas528 $0.99 200 2017/12/31 01:00
Ulefone S8 Pro 4G Smartphone Xmas529 $79.99 50 2017/12/31 01:00
T10 Wedge LED Car Interior Light Xmas530 $0.11 200 2017/12/31 02:00
Onda V10 4G Phablet Xmas531 $109.99 100 2017/12/31 02:00
ORICO CBS7 Desktop Cable Organizer Silicone Wire Holder Clip Xmas532 $1.99 500 2017/12/31 03:00
Lenovo P8 Tablet PC Xmas533 $139.99 50 2017/12/31 03:00

▲Lenovoのコスパの高い8インチタブレットです。

Lenovo P8 Tablet PC – Gearbest.com
KZ ZS5 Detachable HiFi Earphones Xmas534 $14.99 200 2017/12/31 04:00
LEAGOO KIICAA MIX 4G Phablet – 3GB RAM 32GB ROM BLACK Xmas535 $95.99 100 2017/12/31 04:00
Alfawise A95X R1 TV Box – EU BLACK Xmas536 $19.99 100 2017/12/31 11:00
A1 Bluetooth Smart Watch Phone with Pedometer Camera Single SIM – BLACK Xmas537 $9.99 100 2017/12/31 11:00
60W 220V Electronic Soldering Iron Kit with Carry Case – EU PLUG LIGHT BLUE Xmas538 $15.99 50 2017/12/31 17:00
MK1519 1M Mini Measuring Tape / Rule with Keychain – COLORMIX Xmas539 $0.99 100 2017/12/31 17:00
         
4pcs Original Five Holding Razor Blade Xmas540 $0.99 300 2017/12/31 21:00
ZT102 Digital Multimeter Xmas541 $9.99 200 2017/12/31 21:00
Original DJI 3830mAh 11.4V Intelligent Flight Battery Xmas542 $89.99 50 2017/12/31 22:00
Vernee Thor Plus 4G Phablet Xmas543 $119.99 50 2017/12/31 22:00
LERAVAN Mi Home Electrical TENS Pulse Therapy Massage Machine Xmas544 $19.99 100 2017/12/31 23:00
MAZE Alpha 4G Phablet Xmas545 $149.99 50 2017/12/31 23:00
SZKINSTON 10-in-1 Universal USB Charging Sync Data Cable Xmas546 $1.69 200 2018/1/1 00:00

▲10種類の充電端子が一つになった、なんだかやばいやつ。
1個欲しいかも。

Xiaomi Mi Notebook Pro Xmas547 $899.99 50 2018/1/1 00:00
HOWSHOW 8.5-inch Magic LCD Electronic Drawing Tablet Xmas548 $5.99 100 2018/1/1 01:00
HUINA 1550 1:14 2.4GHz 15CH RC Alloy Excavator Xmas549 $38.99 50 2018/1/1 01:00
CHUWI Hi13 2 in 1 Tablet PC Xmas550 $299.99 50 2018/1/1 02:00
Mini Digital LCD Indoor Thermometer Hygrometer Xmas551 $0.99 300 2018/1/1 02:00
ZOP Power ZOP 1500mAh 11.1V 40C Battery XT60 Plug for RC Airplane / Boat Xmas552 $7.99 100 2018/1/1 03:00
OUKITEL K3 4G Phablet Xmas553 $135.99 50 2018/1/1 03:00
DIY 16 in 1 Sensor Module Kit for Raspberry Xmas554 $9.99 100 2018/1/1 04:00
Ender Desktop 3D Printer Kit – EU PLUG BLACK Xmas555 $145.99 50 2018/1/1 04:00
Waterproof Nylon Backpack – BLACK Xmas556 $21.99 100 2018/1/1 11:00
Micro USB Male to USB Female OTG Cable Adapter 2PCS – BLACK Xmas557 $0.59 200 2018/1/1 11:00
TEVISE 9008G Business Men Automatic Mechanical Watch – BLUE Xmas558 $20.99 50 2018/1/1 17:00
Unique Design Multifunctional Attractive Key Chain Ring – COLORMIX Xmas559 $0.69 100 2018/1/1 17:00
         
Car Steering Wheel Phone Mount Holder HNYear001 $0.69 500 2018/1/1 21:00
WUXING LZS85 LCD 8.5 inch Digital Graphic Tablet HNYear002 $7.99 100 2018/1/1 21:00
HIGOLE GOLE1 Plus Mini PC – 4G + 128G EU PLUG HNYear003 $219.99 50 2018/1/1 22:00
JJRC H47 ELFIE+ Foldable RC Pocket Selfie Drone – RTF – WITH THREE BATTERIES HNYear004 $42.99 100 2018/1/1 22:00
GameSir G4s Bluetooth V4.0 / 2.4G Wireless / Wired Gamepad HNYear005 $35.99 200 2018/1/1 23:00
Lenovo P8 ( TAB3 8 Plus ) Tablet PC HNYear006 $129.99 100 2018/1/1 23:00
Original Xiaomi Piston In Ear Earphones Fresh Version HNYear007 $2.99 300 2018/1/2 00:00
Alfawise H96 Pro+ TV Box HNYear008 $58.99 100 2018/1/2 00:00
TS – BT35A08 HiFi Car Wireless Bluetooth 3.0 Audio Music Converter Receiver HNYear009 $1.99 100 2018/1/2 01:00
Xiaomi Bluetooth 4.0 Smart Weight Scale HNYear010 $39.99 100 2018/1/2 01:00

▲一瞬で10種類の体のステータスを計測できる体重計です。

Xiaomiの体重計が凄すぎる!【Xiaomiスマート体重計】

Xiaomi dafang 1080P Smart Monitor Camera HNYear011 $22.99 200 2018/1/2 02:00
Type C to USB 3.0 Female Sync Cable HNYear012 $0.99 500 2018/1/2 02:00
HKC C7000 27 inch Curved Screen HNYear013 $209.99 50 2018/1/2 03:00
ZT102 Digital Multimeter HNYear014 $9.99 200 2018/1/2 03:00
U8 Smartwatch Watch HNYear015 $5.99 300 2018/1/2 04:00
Sunvell T95V PRO Portable Digital TV Box Android 7.1 OS – EU PLUG DEEP GRAY HNYear016 $55.99 50 2018/1/2 04:00
Huawei P9 Lite ( VNS – L31 ) 4G Smartphone Global Version – GOLDEN HNYear017 $165.99 100 2018/1/2 11:00
Bluedio H+ Wireless Bluetooth Headset with Mic – BLACK HNYear018 $18.99 100 2018/1/2 11:00
CF006 Smart Watch Heart Rate Blood Pressure Blood Oxygen Monitoring Smart Bracelet – BLACK STEEL BAND HNYear019 $19.99 100 2018/1/2 17:00
295mm Flexible Shaft Screwdriver Bit – BLACK HNYear020 $0.99 200 2018/1/2 17:00

 

クーポンの使い方

kupon

コメント